createdAt,value
2022-12-11T00:03:38.240Z,99862.72
2022-12-11T00:08:40.251Z,99869.09
2022-12-11T00:13:42.195Z,99866.66
2022-12-11T00:18:44.275Z,99863.25
2022-12-11T00:23:45.821Z,99865.53
2022-12-11T00:28:47.944Z,99855.16
2022-12-11T00:33:50.018Z,99853.69
2022-12-11T00:38:52.813Z,99855.81
2022-12-11T00:43:54.194Z,99869.63
2022-12-11T00:48:55.602Z,99872.47
2022-12-11T00:53:57.479Z,99864.72
2022-12-11T00:58:58.885Z,99868.69
2022-12-11T01:04:00.313Z,99862.50
2022-12-11T01:09:20.142Z,99868.09
2022-12-11T01:14:21.496Z,99872.56
2022-12-11T01:19:25.731Z,99881.31
2022-12-11T01:24:27.099Z,99869.69
2022-12-11T01:29:28.468Z,99868.22
2022-12-11T01:34:30.727Z,99855.44
2022-12-11T01:39:32.095Z,99866.28
2022-12-11T01:44:33.826Z,99850.72
2022-12-11T01:49:36.545Z,99858.97
2022-12-11T01:54:38.340Z,99857.88
2022-12-11T01:59:43.072Z,99869.03
2022-12-11T02:04:46.205Z,99862.00
2022-12-11T02:09:48.454Z,99864.00
2022-12-11T02:15:16.786Z,99865.69
2022-12-11T02:20:27.705Z,99853.84
2022-12-11T02:25:56.172Z,99869.03
2022-12-11T02:31:14.524Z,99863.88
2022-12-11T02:36:18.966Z,99868.00
2022-12-11T02:41:23.177Z,99874.09
2022-12-11T02:46:25.577Z,99875.88
2022-12-11T02:51:32.522Z,99874.81
2022-12-11T02:56:40.323Z,99873.50
2022-12-11T03:01:42.113Z,99869.44
2022-12-11T03:06:49.456Z,99858.50
2022-12-11T03:11:51.965Z,99862.44
2022-12-11T03:17:04.940Z,99870.88
2022-12-11T03:22:15.584Z,99870.28
2022-12-11T03:27:36.295Z,99865.56
2022-12-11T03:32:49.232Z,99863.75
2022-12-11T03:37:53.160Z,99849.41
2022-12-11T03:42:57.326Z,99863.09
2022-12-11T03:48:01.470Z,99865.75
2022-12-11T03:53:04.645Z,99865.34
2022-12-11T03:58:06.408Z,99862.00
2022-12-11T04:03:14.257Z,99856.81
2022-12-11T04:08:17.661Z,99862.28
2022-12-11T04:13:19.087Z,99853.63
2022-12-11T04:18:38.968Z,99853.75
2022-12-11T04:24:12.749Z,99856.25
2022-12-11T04:29:15.130Z,99860.03
2022-12-11T04:34:16.943Z,99854.75
2022-12-11T04:39:18.285Z,99854.50
2022-12-11T04:44:19.638Z,99855.34
2022-12-11T04:49:20.978Z,99849.72
2022-12-11T04:54:22.371Z,99860.56
2022-12-11T04:59:23.737Z,99860.56
2022-12-11T05:04:25.294Z,99846.38
2022-12-11T05:09:27.515Z,99840.78
2022-12-11T05:14:31.874Z,99839.38
2022-12-11T05:19:33.390Z,99836.03
2022-12-11T05:24:34.733Z,99832.97
2022-12-11T05:29:36.345Z,99828.84
2022-12-11T05:34:37.826Z,99828.13
2022-12-11T05:39:39.245Z,99826.31
2022-12-11T05:44:40.585Z,99836.72
2022-12-11T05:49:41.985Z,99837.84
2022-12-11T05:54:43.446Z,99843.47
2022-12-11T05:59:45.215Z,99832.31
2022-12-11T06:04:46.587Z,99828.97
2022-12-11T06:09:47.934Z,99807.22
2022-12-11T06:14:49.278Z,99811.28
2022-12-11T06:19:50.640Z,99807.66
2022-12-11T06:24:52.033Z,99811.00
2022-12-11T06:29:53.382Z,99813.38
2022-12-11T06:34:54.804Z,99811.00
2022-12-11T06:39:56.147Z,99811.00
2022-12-11T06:44:59.664Z,99801.66
2022-12-11T06:50:02.253Z,99806.41
2022-12-11T06:55:03.917Z,99801.22
2022-12-11T07:00:06.001Z,99805.38
2022-12-11T07:05:07.585Z,99811.00
2022-12-11T07:10:09.814Z,99810.34
2022-12-11T07:15:11.451Z,99817.75
2022-12-11T07:20:13.059Z,99826.97
2022-12-11T07:25:14.838Z,99815.38
2022-12-11T07:30:16.314Z,99820.25
2022-12-11T07:35:17.677Z,99812.31
2022-12-11T07:40:19.049Z,99822.53
2022-12-11T07:45:20.418Z,99832.84
2022-12-11T07:50:22.383Z,99829.22
2022-12-11T07:55:23.762Z,99834.53
2022-12-11T08:00:25.138Z,99832.44
2022-12-11T08:05:26.494Z,99844.72
2022-12-11T08:10:27.849Z,99838.03
2022-12-11T08:15:29.235Z,99839.84
2022-12-11T08:20:31.051Z,99843.59
2022-12-11T08:25:32.912Z,99838.84
2022-12-11T08:30:34.362Z,99835.13
2022-12-11T08:35:39.698Z,99837.22
2022-12-11T08:40:41.315Z,99834.00
2022-12-11T08:45:42.786Z,99823.66
2022-12-11T08:50:44.227Z,99823.66
2022-12-11T08:55:45.587Z,99825.88
2022-12-11T09:00:47.008Z,99827.31
2022-12-11T09:05:48.342Z,99831.34
2022-12-11T09:10:49.753Z,99831.75
2022-12-11T09:15:51.144Z,99836.81
2022-12-11T09:21:03.886Z,99836.09
2022-12-11T09:26:06.770Z,99831.06
2022-12-11T09:31:10.401Z,99835.41
2022-12-11T09:36:12.592Z,99839.31
2022-12-11T09:41:22.891Z,99838.63
2022-12-11T09:46:25.141Z,99829.09
2022-12-11T09:51:36.223Z,99823.41
2022-12-11T09:57:16.845Z,99822.66
2022-12-11T10:02:34.218Z,99812.72
2022-12-11T10:07:49.355Z,99815.81
2022-12-11T10:12:59.525Z,99809.09
2022-12-11T10:18:05.342Z,99809.38
2022-12-11T10:23:09.654Z,99811.19
2022-12-11T10:28:16.622Z,99814.41
2022-12-11T10:33:23.425Z,99814.09
2022-12-11T10:38:29.072Z,99810.06
2022-12-11T10:43:39.608Z,99807.56
2022-12-11T10:48:59.381Z,99801.56
2022-12-11T10:54:32.266Z,99802.41
2022-12-11T10:59:49.213Z,99790.94
2022-12-11T11:04:51.240Z,99781.53
2022-12-11T11:10:10.340Z,99769.94
2022-12-11T11:15:19.416Z,99762.94
2022-12-11T11:20:27.275Z,99764.63
2022-12-11T11:25:32.629Z,99763.59
2022-12-11T11:30:37.192Z,99752.84
2022-12-11T11:35:40.179Z,99753.09
2022-12-11T11:40:53.119Z,99746.66
2022-12-11T11:46:04.335Z,99746.06
2022-12-11T11:51:22.918Z,99740.72
2022-12-11T11:56:28.805Z,99731.19
2022-12-11T12:01:30.449Z,99733.06
2022-12-11T12:07:07.096Z,99731.94
2022-12-11T12:12:24.738Z,99730.63
2022-12-11T12:22:52.009Z,99719.69
2022-12-11T12:28:18.008Z,99712.72
2022-12-11T12:33:33.084Z,99719.03
2022-12-11T12:38:52.797Z,99720.59
2022-12-11T12:44:13.886Z,99723.38
2022-12-11T12:49:38.290Z,99732.78
2022-12-11T12:54:42.439Z,99723.97
2022-12-11T12:59:54.117Z,99721.31
2022-12-11T13:05:22.563Z,99709.56
2022-12-11T13:10:38.804Z,99706.66
2022-12-11T13:15:45.003Z,99708.84
2022-12-11T13:20:50.927Z,99709.41
2022-12-11T13:25:55.686Z,99721.50
2022-12-11T13:31:04.250Z,99722.13
2022-12-11T13:36:33.832Z,99722.16
2022-12-11T13:41:37.431Z,99731.41
2022-12-11T13:46:39.542Z,99725.53
2022-12-11T13:51:52.635Z,99717.28
2022-12-11T13:57:07.621Z,99730.94
2022-12-11T14:02:20.873Z,99730.44
2022-12-11T14:07:30.450Z,99737.91
2022-12-11T14:12:32.755Z,99722.94
2022-12-11T14:17:36.181Z,99720.56
2022-12-11T14:22:37.610Z,99725.88
2022-12-11T14:27:48.758Z,99721.97
2022-12-11T14:32:52.335Z,99722.34
2022-12-11T14:37:54.587Z,99731.00
2022-12-11T14:43:01.644Z,99740.66
2022-12-11T14:48:16.322Z,99738.53
2022-12-11T14:53:23.003Z,99744.53
2022-12-11T14:58:26.669Z,99751.94
2022-12-11T15:03:36.488Z,99751.69
2022-12-11T15:08:38.315Z,99752.25
2022-12-11T15:14:02.800Z,99749.59
2022-12-11T15:19:04.317Z,99749.19
2022-12-11T15:24:07.050Z,99754.63
2022-12-11T15:29:31.979Z,99756.31
2022-12-11T15:34:53.435Z,99760.78
2022-12-11T15:39:56.477Z,99767.22
2022-12-11T15:44:59.216Z,99767.94
2022-12-11T15:50:16.631Z,99768.34
2022-12-11T15:55:19.172Z,99762.34
2022-12-11T16:00:22.172Z,99770.19
2022-12-11T16:05:24.659Z,99773.38
2022-12-11T16:10:27.010Z,99777.69
2022-12-11T16:15:28.959Z,99781.06
2022-12-11T16:20:31.429Z,99786.38
2022-12-11T16:25:33.922Z,99785.09
2022-12-11T16:30:37.088Z,99785.25
2022-12-11T16:35:38.506Z,99774.06
2022-12-11T16:40:41.321Z,99773.81
2022-12-11T16:45:43.050Z,99781.19
2022-12-11T16:50:44.400Z,99774.78
2022-12-11T16:55:45.960Z,99776.59
2022-12-11T17:00:48.167Z,99777.00
2022-12-11T17:05:49.510Z,99768.50
2022-12-11T17:10:52.108Z,99765.28
2022-12-11T17:15:53.502Z,99760.66
2022-12-11T17:20:55.101Z,99753.69
2022-12-11T17:25:56.477Z,99759.41
2022-12-11T17:30:58.515Z,99759.00
2022-12-11T17:36:01.709Z,99750.75
2022-12-11T17:41:15.504Z,99750.19
2022-12-11T17:46:21.726Z,99750.16
2022-12-11T17:51:24.487Z,99746.94
2022-12-11T17:56:27.168Z,99740.94
2022-12-11T18:01:28.583Z,99741.09
2022-12-11T18:06:31.168Z,99742.06
2022-12-11T18:11:33.068Z,99743.47
2022-12-11T18:16:37.978Z,99740.81
2022-12-11T18:21:42.732Z,99744.75
2022-12-11T18:26:44.189Z,99743.19
2022-12-11T18:31:45.603Z,99751.72
2022-12-11T18:36:47.026Z,99745.72
2022-12-11T18:42:03.583Z,99739.16
2022-12-11T18:47:09.758Z,99742.66
2022-12-11T18:52:11.179Z,99749.09
2022-12-11T18:57:12.701Z,99747.13
2022-12-11T19:02:14.212Z,99741.13
2022-12-11T19:07:15.662Z,99745.59
2022-12-11T19:12:17.064Z,99751.59
2022-12-11T19:17:18.461Z,99740.84
2022-12-11T19:22:20.369Z,99732.47
2022-12-11T19:27:21.760Z,99735.81
2022-12-11T19:32:23.195Z,99741.69
2022-12-11T19:37:24.677Z,99742.38
2022-12-11T19:42:26.644Z,99744.34
2022-12-11T19:47:27.991Z,99746.16
2022-12-11T19:52:29.422Z,99750.34
2022-12-11T19:57:34.301Z,99752.84
2022-12-11T20:02:35.721Z,99751.31
2022-12-11T20:07:37.149Z,99754.25
2022-12-11T20:12:38.673Z,99737.47
2022-12-11T20:17:44.515Z,99737.91
2022-12-11T20:22:46.003Z,99741.81
2022-12-11T20:27:47.899Z,99744.47
2022-12-11T20:32:52.838Z,99746.88
2022-12-11T20:37:54.218Z,99741.13
2022-12-11T20:42:55.568Z,99741.00
2022-12-11T20:47:56.928Z,99735.50
2022-12-11T20:52:58.638Z,99742.91
2022-12-11T20:57:59.994Z,99737.19
2022-12-11T21:03:01.372Z,99735.81
2022-12-11T21:08:02.823Z,99737.19
2022-12-11T21:13:04.211Z,99735.63
2022-12-11T21:18:07.044Z,99735.09
2022-12-11T21:23:08.440Z,99724.88
2022-12-11T21:28:09.827Z,99728.41
2022-12-11T21:33:11.523Z,99730.19
2022-12-11T21:38:13.582Z,99727.69
2022-12-11T21:43:15.167Z,99733.97
2022-12-11T21:48:16.531Z,99733.28
2022-12-11T21:53:17.938Z,99736.38
2022-12-11T21:58:19.305Z,99743.78
2022-12-11T22:03:20.646Z,99746.56
2022-12-11T22:08:22.129Z,99746.31
2022-12-11T22:13:23.701Z,99740.13
2022-12-11T22:18:28.021Z,99746.00
2022-12-11T22:23:29.597Z,99743.47
2022-12-11T22:28:30.953Z,99748.25
2022-12-11T22:33:32.304Z,99750.91
2022-12-11T22:38:34.531Z,99746.44
2022-12-11T22:43:35.863Z,99754.41
2022-12-11T22:48:37.211Z,99753.13
2022-12-11T22:53:38.986Z,99757.88
2022-12-11T22:58:40.821Z,99755.53
2022-12-11T23:03:42.301Z,99754.13
2022-12-11T23:08:44.257Z,99754.66
2022-12-11T23:13:45.766Z,99756.63
2022-12-11T23:18:47.302Z,99762.63
2022-12-11T23:23:49.221Z,99758.88
2022-12-11T23:28:50.631Z,99761.09
2022-12-11T23:33:52.545Z,99755.09
2022-12-11T23:38:55.127Z,99760.13
2022-12-11T23:43:56.642Z,99769.75
2022-12-11T23:48:58.023Z,99765.44
2022-12-11T23:53:59.452Z,99768.09
2022-12-11T23:59:01.232Z,99764.44
